Banja Luka International, Bosnia and Herzegovina

2:11 PM CEST on July 31, 2014 (GMT +0200)
Banja Luka International (LQBK) Elev 397 ft | 44.94 °N, 17.30 °E | Change Station

Current weather conditions updated 11 minutes ago

Partly Cloudy
Partly Cloudy
75 °F
Feels Like 75 °F
N
5
Wind Variable Wind from North

Today is forecast to be Cooler than yesterday. Rain developing late tonight.

Today
High -- | Low -- °F
--% Chance of Precip.
Yesterday
High -- | Low -- °F
Precip. -- in
5:35 AM 8:18 PM
Waxing Crescent, 18% visible
Pressure 29.80 in
Visibility 6.2 miles
Clouds Few 3000 ft
Dew Point 63 °F
Humidity 65%
Rainfall 0.00 in
Snow Depth Not available.
UV 9 out of 12
Pollen Not available.
Air Quality Not available.
Flu Activity Not available.
METAR LQBK 311200Z 01004KT 9999 FEW030 24/17 Q1009 NOSIG

More Conditions Fewer Conditions

Pressure 29.80 in
Visibility 6.2 miles
Clouds Few 3000 ft
Dew Point 63 °F
Humidity 65%
Rainfall 0.00 in
Snow Depth Not available.
UV 9 out of 12
Pollen Not available.
Air Quality Not available.
Flu Activity Not available.
METAR LQBK 311200Z 01004KT 9999 FEW030 24/17 Q1009 NOSIG

More Conditions Fewer Conditions

10-Day Weather Forecast

Almanac

Astronomy

Jul. 31, 2014 Rise Set
Actual Time 5:35 AM CEST 8:18 PM CEST
Civil Twilight 5:01 AM CEST 8:52 PM CEST
Nautical Twilight 4:19 AM CEST 9:34 PM CEST
Astronomical Twilight 3:29 AM CEST 10:23 PM CEST
Moon 9:59 AM CEST 10:08 PM CEST
Length of Visible Light 15h 50m
Length of Day
14h 42m
Tomorrow will be 2m 22s shorter.
Waxing Crescent, 18% of the Moon is Illuminated
Today
Waxing Crescent
Aug 3
First Quarter
Aug 10
Full
Aug 17
Last Quarter
Aug 25
New

Yesterday's Extremes

Country Highs Country Lows

Community

WunderPhotos

Upload Photos

1,739,305 photos uploaded!

WunderBlogs® & News

By Dr. Jeff Masters
Director of Meteorology, Weather Underground
By Kari Strenfel
Meteorologist, Weather Underground
By Christopher C. Burt
Weather Historian, Weather Underground
July 31, 2014
July 31, 2014
July 31, 2014

Nearby

Snow Depth

Not available.

Earthquake Activity

City Distance Mag. Time & Date
No recent earthquake activity has been reported nearby.
Minimum magnitude displayed is 2.5.

Coastal Water Temperatures

Place Temperature
No Stations Reporting

Nearby Weather Stations

There are no personal weather stations in this area.